createdAt,value
2017-10-13T00:01:29.016Z,1.23
2017-10-13T00:03:56.528Z,1.30
2017-10-13T00:06:24.115Z,1.20
2017-10-13T00:08:51.619Z,1.43
2017-10-13T00:11:19.891Z,1.30
2017-10-13T00:13:48.171Z,1.40
2017-10-13T00:16:16.443Z,1.30
2017-10-13T00:18:44.822Z,1.57
2017-10-13T00:21:12.316Z,1.43
2017-10-13T00:23:39.943Z,1.50
2017-10-13T00:26:07.579Z,1.60
2017-10-13T00:28:35.270Z,1.40
2017-10-13T00:31:02.782Z,1.70
2017-10-13T00:33:31.094Z,1.43
2017-10-13T00:35:58.786Z,1.40
2017-10-13T00:38:26.495Z,1.50
2017-10-13T00:40:54.183Z,1.10
2017-10-13T00:43:21.823Z,1.30
2017-10-13T00:45:49.482Z,1.20
2017-10-13T00:48:16.980Z,1.30
2017-10-13T00:50:44.485Z,1.47
2017-10-13T00:53:12.760Z,1.43
2017-10-13T00:55:41.022Z,1.50
2017-10-13T00:58:09.283Z,1.70
2017-10-13T01:00:37.555Z,1.40
2017-10-13T01:03:05.168Z,1.83
2017-10-13T01:05:32.820Z,1.63
2017-10-13T01:08:00.359Z,1.53
2017-10-13T01:10:28.032Z,1.27
2017-10-13T01:12:55.783Z,1.47
2017-10-13T01:15:23.291Z,1.50
2017-10-13T01:17:50.896Z,1.43
2017-10-13T01:20:18.394Z,1.40
2017-10-13T01:22:45.900Z,1.50
2017-10-13T01:25:13.459Z,1.67
2017-10-13T01:27:40.959Z,1.60
2017-10-13T01:30:08.451Z,1.43
2017-10-13T01:32:36.766Z,1.43
2017-10-13T01:35:04.280Z,1.57
2017-10-13T01:37:31.867Z,1.83
2017-10-13T01:39:59.371Z,1.43
2017-10-13T01:42:28.502Z,1.57
2017-10-13T01:44:56.002Z,1.47
2017-10-13T01:47:23.506Z,1.50
2017-10-13T01:49:51.099Z,1.70
2017-10-13T01:52:18.604Z,1.70
2017-10-13T01:54:46.390Z,1.70
2017-10-13T01:57:13.896Z,1.40
2017-10-13T01:59:41.420Z,1.40
2017-10-13T02:02:08.919Z,1.60
2017-10-13T02:04:36.608Z,1.40
2017-10-13T02:07:04.120Z,1.97
2017-10-13T02:09:31.613Z,1.57
2017-10-13T02:11:59.182Z,1.57
2017-10-13T02:14:26.674Z,1.47
2017-10-13T02:16:54.170Z,1.40
2017-10-13T02:19:22.435Z,1.70
2017-10-13T02:21:50.712Z,1.40
2017-10-13T02:24:18.987Z,1.50
2017-10-13T02:26:47.393Z,1.30
2017-10-13T02:29:14.997Z,1.30
2017-10-13T02:31:43.308Z,1.80
2017-10-13T02:34:10.994Z,1.77
2017-10-13T02:36:38.491Z,1.67
2017-10-13T02:39:06.009Z,1.73
2017-10-13T02:41:33.746Z,1.67
2017-10-13T02:44:01.243Z,1.70
2017-10-13T02:46:28.735Z,1.63
2017-10-13T02:48:56.997Z,1.60
2017-10-13T02:51:24.494Z,2.30
2017-10-13T02:53:52.053Z,1.70
2017-10-13T02:56:19.551Z,1.67
2017-10-13T02:58:47.043Z,1.80
2017-10-13T03:01:14.543Z,2.00
2017-10-13T03:03:42.047Z,1.70
2017-10-13T03:06:09.543Z,2.00
2017-10-13T03:08:37.042Z,1.77
2017-10-13T03:11:05.305Z,1.60
2017-10-13T03:13:32.915Z,1.53
2017-10-13T03:16:00.431Z,2.17
2017-10-13T03:18:28.741Z,1.60
2017-10-13T03:20:56.248Z,1.70
2017-10-13T03:23:23.777Z,1.90
2017-10-13T03:25:51.280Z,1.73
2017-10-13T03:28:19.539Z,1.77
2017-10-13T03:30:47.800Z,1.90
2017-10-13T03:33:15.307Z,1.93
2017-10-13T03:35:43.215Z,1.97
2017-10-13T03:38:10.728Z,1.70
2017-10-13T03:40:38.243Z,1.70
2017-10-13T03:43:06.653Z,2.17
2017-10-13T03:45:34.315Z,1.80
2017-10-13T03:48:01.811Z,1.67
2017-10-13T03:50:29.303Z,1.97
2017-10-13T03:52:57.696Z,1.97
2017-10-13T03:55:25.203Z,1.90
2017-10-13T03:57:52.713Z,1.70
2017-10-13T04:00:20.252Z,1.50
2017-10-13T04:02:47.756Z,1.83
2017-10-13T04:05:15.378Z,1.87
2017-10-13T04:07:42.882Z,1.90
2017-10-13T04:10:10.392Z,1.50
2017-10-13T04:12:37.888Z,1.97
2017-10-13T04:15:05.411Z,1.70
2017-10-13T04:17:32.902Z,2.10
2017-10-13T04:20:00.404Z,2.07
2017-10-13T04:22:28.182Z,2.00
2017-10-13T04:24:55.687Z,1.77
2017-10-13T04:27:23.183Z,1.80
2017-10-13T04:29:50.694Z,2.10
2017-10-13T04:32:19.207Z,1.83
2017-10-13T04:34:46.715Z,1.63
2017-10-13T04:37:14.428Z,1.87
2017-10-13T04:39:41.999Z,1.57
2017-10-13T04:42:09.515Z,2.07
2017-10-13T04:44:37.787Z,1.63
2017-10-13T04:47:06.107Z,1.93
2017-10-13T04:49:33.842Z,2.00
2017-10-13T04:52:01.335Z,1.80
2017-10-13T04:54:28.844Z,1.80
2017-10-13T04:56:56.407Z,1.40
2017-10-13T04:59:23.945Z,1.87
2017-10-13T05:01:51.728Z,2.00
2017-10-13T05:04:19.231Z,1.93
2017-10-13T05:06:46.727Z,1.93
2017-10-13T05:09:14.595Z,2.10
2017-10-13T05:11:42.107Z,2.13
2017-10-13T05:14:10.380Z,1.97
2017-10-13T05:16:37.903Z,2.03
2017-10-13T05:19:05.407Z,1.80
2017-10-13T05:21:33.671Z,2.03
2017-10-13T05:24:01.180Z,2.17
2017-10-13T05:26:28.694Z,2.00
2017-10-13T05:28:56.200Z,1.70
2017-10-13T05:31:23.743Z,2.13
2017-10-13T05:33:51.299Z,1.80
2017-10-13T05:36:18.801Z,2.07
2017-10-13T05:38:46.300Z,1.87
2017-10-13T05:41:13.808Z,2.00
2017-10-13T05:43:41.306Z,3.53
2017-10-13T05:46:08.807Z,3.80
2017-10-13T05:48:36.295Z,3.70
2017-10-13T05:51:04.567Z,2.87
2017-10-13T05:53:32.850Z,3.10
2017-10-13T05:56:00.429Z,2.97
2017-10-13T05:58:27.935Z,2.63
2017-10-13T06:00:55.551Z,2.40
2017-10-13T06:03:23.187Z,2.80
2017-10-13T06:05:50.699Z,2.40
2017-10-13T06:08:18.805Z,2.47
2017-10-13T06:10:46.395Z,2.63
2017-10-13T06:13:13.891Z,2.33
2017-10-13T06:15:41.447Z,2.40
2017-10-13T06:18:09.146Z,2.57
2017-10-13T06:20:36.642Z,2.30
2017-10-13T06:23:04.262Z,2.20
2017-10-13T06:25:31.759Z,2.30
2017-10-13T06:27:59.252Z,2.17
2017-10-13T06:30:26.850Z,2.03
2017-10-13T06:32:54.364Z,1.80
2017-10-13T06:35:21.888Z,1.97
2017-10-13T06:37:49.383Z,2.30
2017-10-13T06:40:17.046Z,2.60
2017-10-13T06:42:44.566Z,1.90
2017-10-13T06:45:12.066Z,1.90
2017-10-13T06:47:39.615Z,2.03
2017-10-13T06:50:07.489Z,1.80
2017-10-13T06:52:35.224Z,2.27
2017-10-13T06:55:02.752Z,2.83
2017-10-13T06:57:30.267Z,2.80
2017-10-13T06:59:57.790Z,2.00
2017-10-13T07:02:26.055Z,2.17
2017-10-13T07:04:54.455Z,1.90
2017-10-13T07:07:21.955Z,1.80
2017-10-13T07:09:49.458Z,2.00
2017-10-13T07:12:16.950Z,2.20
2017-10-13T07:14:44.488Z,1.80
2017-10-13T07:17:11.989Z,2.10
2017-10-13T07:19:39.610Z,1.80
2017-10-13T07:22:07.135Z,1.80
2017-10-13T07:24:34.781Z,2.33
2017-10-13T07:27:03.067Z,1.93
2017-10-13T07:29:30.567Z,1.80
2017-10-13T07:31:58.087Z,1.93
2017-10-13T07:34:25.589Z,1.67
2017-10-13T07:36:53.170Z,2.00
2017-10-13T07:39:20.858Z,1.83
2017-10-13T07:41:48.360Z,2.10
2017-10-13T07:44:15.882Z,2.20
2017-10-13T07:46:43.375Z,2.13
2017-10-13T07:49:10.903Z,2.10
2017-10-13T07:51:38.415Z,2.13
2017-10-13T07:54:06.811Z,2.00
2017-10-13T07:56:34.463Z,2.03
2017-10-13T07:59:02.015Z,2.10
2017-10-13T08:01:29.574Z,2.33
2017-10-13T08:03:57.077Z,1.97
2017-10-13T08:06:24.595Z,1.70
2017-10-13T08:08:52.091Z,2.00
2017-10-13T08:11:19.811Z,1.87
2017-10-13T08:13:47.315Z,1.60
2017-10-13T08:16:14.836Z,1.73
2017-10-13T08:18:42.367Z,1.93
2017-10-13T08:21:09.891Z,2.17
2017-10-13T08:23:37.388Z,1.90
2017-10-13T08:26:04.938Z,2.63
2017-10-13T08:28:32.606Z,1.97
2017-10-13T08:31:00.116Z,2.00
2017-10-13T08:33:27.619Z,1.73
2017-10-13T08:35:55.183Z,1.90
2017-10-13T08:38:22.703Z,1.87
2017-10-13T08:40:50.970Z,2.40
2017-10-13T08:43:19.260Z,1.87
2017-10-13T08:45:46.771Z,2.10
2017-10-13T08:48:15.910Z,1.90
2017-10-13T08:50:43.403Z,1.90
2017-10-13T08:53:10.960Z,1.83
2017-10-13T08:55:38.859Z,2.00
2017-10-13T08:58:06.355Z,1.57
2017-10-13T09:00:33.852Z,2.13
2017-10-13T09:03:02.300Z,1.50
2017-10-13T09:05:29.847Z,2.03
2017-10-13T09:07:57.342Z,2.43
2017-10-13T09:10:24.898Z,1.60
2017-10-13T09:12:52.400Z,1.90
2017-10-13T09:15:20.004Z,1.80
2017-10-13T09:17:47.503Z,2.10
2017-10-13T09:20:15.022Z,1.63
2017-10-13T09:22:48.195Z,2.00
2017-10-13T09:25:15.787Z,1.63
2017-10-13T09:27:44.061Z,1.87
2017-10-13T09:30:11.647Z,1.80
2017-10-13T09:32:39.148Z,2.00
2017-10-13T09:35:06.643Z,1.93
2017-10-13T09:37:34.166Z,1.50
2017-10-13T09:40:01.680Z,1.83
2017-10-13T09:42:29.203Z,1.70
2017-10-13T09:44:56.789Z,2.10
2017-10-13T09:47:24.323Z,1.80
2017-10-13T09:49:51.823Z,1.60
2017-10-13T09:52:19.528Z,1.80
2017-10-13T09:54:47.036Z,1.50
2017-10-13T09:57:14.550Z,1.70
2017-10-13T09:59:42.131Z,1.70
2017-10-13T10:02:09.645Z,1.80
2017-10-13T10:04:37.931Z,1.70
2017-10-13T10:07:05.528Z,1.70
2017-10-13T10:09:33.052Z,1.90
2017-10-13T10:12:00.542Z,1.53
2017-10-13T10:14:28.099Z,1.90
2017-10-13T10:16:55.595Z,1.90
2017-10-13T10:19:23.878Z,1.80
2017-10-13T10:21:52.139Z,1.50
2017-10-13T10:24:20.437Z,1.53
2017-10-13T10:26:47.936Z,1.77
2017-10-13T10:29:15.551Z,1.70
2017-10-13T10:31:43.057Z,1.60
2017-10-13T10:34:10.551Z,1.83
2017-10-13T10:36:38.080Z,1.60
2017-10-13T10:39:05.583Z,1.47
2017-10-13T10:41:33.102Z,1.60
2017-10-13T10:44:00.614Z,1.47
2017-10-13T10:46:29.107Z,1.60
2017-10-13T10:48:57.345Z,1.80
2017-10-13T10:51:24.849Z,1.63
2017-10-13T10:53:52.355Z,1.60
2017-10-13T10:56:19.854Z,1.57
2017-10-13T10:58:47.370Z,1.50
2017-10-13T11:01:14.873Z,1.73
2017-10-13T11:03:42.392Z,1.60
2017-10-13T11:06:10.000Z,1.60
2017-10-13T11:08:38.309Z,1.73
2017-10-13T11:11:05.886Z,1.30
2017-10-13T11:13:33.383Z,1.50
2017-10-13T11:16:01.791Z,1.70
2017-10-13T11:18:29.283Z,2.00
2017-10-13T11:20:56.908Z,1.40
2017-10-13T11:23:24.416Z,1.50
2017-10-13T11:25:51.934Z,1.50
2017-10-13T11:28:19.447Z,1.40
2017-10-13T11:30:46.970Z,1.67
2017-10-13T11:33:14.475Z,1.60
2017-10-13T11:35:42.095Z,1.50
2017-10-13T11:38:09.660Z,1.63
2017-10-13T11:40:37.971Z,1.73
2017-10-13T11:43:06.434Z,1.50
2017-10-13T11:45:33.943Z,1.63
2017-10-13T11:48:01.460Z,1.60
2017-10-13T11:50:29.121Z,1.53
2017-10-13T11:52:56.715Z,2.03
2017-10-13T11:55:24.210Z,1.53
2017-10-13T11:57:51.818Z,1.67
2017-10-13T12:00:19.319Z,1.77
2017-10-13T12:02:46.863Z,1.60
2017-10-13T12:05:14.364Z,1.47
2017-10-13T12:07:41.908Z,1.60
2017-10-13T12:10:10.019Z,1.53
2017-10-13T12:12:37.611Z,1.60
2017-10-13T12:15:05.913Z,1.40
2017-10-13T12:17:33.475Z,1.60
2017-10-13T12:20:00.994Z,1.50
2017-10-13T12:22:29.259Z,1.60
2017-10-13T12:24:57.550Z,1.60
2017-10-13T12:27:25.090Z,1.50
2017-10-13T12:29:52.618Z,1.77
2017-10-13T12:32:20.123Z,1.73
2017-10-13T12:34:47.892Z,1.60
2017-10-13T12:37:15.383Z,1.80
2017-10-13T12:39:42.882Z,1.63
2017-10-13T12:42:11.166Z,1.40
2017-10-13T12:44:38.750Z,1.60
2017-10-13T12:47:06.282Z,1.70
2017-10-13T12:49:33.871Z,1.70
2017-10-13T12:52:01.395Z,1.60
2017-10-13T12:54:28.906Z,1.30
2017-10-13T12:56:56.621Z,1.50
2017-10-13T12:59:24.111Z,1.33
2017-10-13T13:01:52.544Z,1.60
2017-10-13T13:04:20.208Z,1.60
2017-10-13T13:06:47.863Z,1.27
2017-10-13T13:09:15.401Z,1.40
2017-10-13T13:11:43.666Z,1.40
2017-10-13T13:14:12.082Z,1.40
2017-10-13T13:16:39.591Z,1.50
2017-10-13T13:19:07.883Z,1.53
2017-10-13T13:21:35.447Z,1.13
2017-10-13T13:24:02.955Z,1.57
2017-10-13T13:26:30.492Z,1.40
2017-10-13T13:28:57.991Z,1.60
2017-10-13T13:31:25.680Z,1.37
2017-10-13T13:33:53.187Z,1.40
2017-10-13T13:36:20.699Z,1.50
2017-10-13T13:38:48.235Z,1.60
2017-10-13T13:41:15.796Z,1.60
2017-10-13T13:43:43.380Z,1.53
2017-10-13T13:46:10.917Z,1.47
2017-10-13T13:48:38.671Z,1.20
2017-10-13T13:51:06.162Z,1.50
2017-10-13T13:53:33.667Z,1.50
2017-10-13T13:56:01.936Z,1.50
2017-10-13T13:58:30.215Z,1.30
2017-10-13T14:00:57.804Z,1.63
2017-10-13T14:03:25.359Z,1.10
2017-10-13T14:05:52.846Z,1.30
2017-10-13T14:08:20.378Z,1.60
2017-10-13T14:10:47.875Z,1.40
2017-10-13T14:13:16.171Z,1.40
2017-10-13T14:15:43.767Z,1.30
2017-10-13T14:18:11.270Z,1.40
2017-10-13T14:20:39.547Z,1.50
2017-10-13T14:23:07.811Z,1.40
2017-10-13T14:25:36.127Z,1.20
2017-10-13T14:28:03.619Z,1.30
2017-10-13T14:30:31.115Z,1.33
2017-10-13T14:32:58.608Z,1.40
2017-10-13T14:35:26.121Z,1.67
2017-10-13T14:37:53.699Z,1.60
2017-10-13T14:40:21.204Z,1.33
2017-10-13T14:42:48.726Z,2.03
2017-10-13T14:45:16.222Z,1.50
2017-10-13T14:47:43.730Z,1.77
2017-10-13T14:50:11.248Z,1.57
2017-10-13T14:52:39.527Z,1.80
2017-10-13T14:55:07.322Z,1.90
2017-10-13T14:57:34.950Z,1.80
2017-10-13T15:00:02.471Z,1.77
2017-10-13T15:02:29.963Z,1.70
2017-10-13T15:04:57.581Z,2.40
2017-10-13T15:07:25.183Z,1.90
2017-10-13T15:09:52.703Z,1.70
2017-10-13T15:12:20.207Z,1.80
2017-10-13T15:14:47.760Z,1.90
2017-10-13T15:17:15.414Z,1.60
2017-10-13T15:19:42.916Z,3.37
2017-10-13T15:22:10.534Z,1.87
2017-10-13T15:24:38.027Z,2.00
2017-10-13T15:27:11.259Z,2.93
2017-10-13T15:29:44.336Z,2.03
2017-10-13T15:32:32.755Z,2.00
2017-10-13T15:35:05.943Z,1.47
2017-10-13T15:37:33.557Z,1.73
2017-10-13T15:40:06.843Z,1.53
2017-10-13T15:42:39.990Z,1.80
2017-10-13T15:45:08.282Z,1.93
2017-10-13T15:47:41.477Z,1.80
2017-10-13T15:50:14.888Z,2.03
2017-10-13T15:52:42.464Z,2.30
2017-10-13T15:55:09.970Z,2.10
2017-10-13T15:57:38.358Z,2.40
2017-10-13T16:00:05.880Z,1.70
2017-10-13T16:02:33.488Z,2.43
2017-10-13T16:05:00.996Z,1.90
2017-10-13T16:07:28.523Z,2.20
2017-10-13T16:09:56.024Z,1.90
2017-10-13T16:12:23.570Z,2.43
2017-10-13T16:14:51.831Z,2.07
2017-10-13T16:17:19.623Z,2.80
2017-10-13T16:19:47.123Z,2.20
2017-10-13T16:22:14.627Z,2.97
2017-10-13T16:24:42.910Z,3.43
2017-10-13T16:27:10.495Z,3.10
2017-10-13T16:29:38.023Z,2.90
2017-10-13T16:32:05.799Z,3.00
2017-10-13T16:34:33.323Z,2.77
2017-10-13T16:37:01.591Z,3.30
2017-10-13T16:39:29.902Z,2.60
2017-10-13T16:41:57.664Z,2.70
2017-10-13T16:44:25.160Z,3.53
2017-10-13T16:46:52.776Z,2.90
2017-10-13T16:49:20.275Z,3.70
2017-10-13T16:51:47.771Z,3.57
2017-10-13T16:54:15.367Z,2.60
2017-10-13T16:56:42.899Z,2.90
2017-10-13T16:59:10.408Z,2.90
2017-10-13T17:01:38.109Z,2.90
2017-10-13T17:04:05.609Z,3.00
2017-10-13T17:06:33.163Z,2.63
2017-10-13T17:09:00.652Z,3.30
2017-10-13T17:11:28.341Z,2.17
2017-10-13T17:13:55.844Z,2.90
2017-10-13T17:16:23.355Z,3.10
2017-10-13T17:18:50.915Z,2.93
2017-10-13T17:21:18.415Z,2.63
2017-10-13T17:23:45.930Z,3.30
2017-10-13T17:26:13.492Z,2.70
2017-10-13T17:28:41.015Z,2.50
2017-10-13T17:31:08.519Z,2.60
2017-10-13T17:33:36.246Z,2.90
2017-10-13T17:36:03.743Z,2.70
2017-10-13T17:38:31.238Z,2.47
2017-10-13T17:40:58.814Z,2.27
2017-10-13T17:43:26.312Z,2.90
2017-10-13T17:45:53.935Z,2.37
2017-10-13T17:48:21.434Z,2.90
2017-10-13T17:50:49.701Z,2.50
2017-10-13T17:53:17.498Z,2.50
2017-10-13T17:55:45.009Z,2.47
2017-10-13T17:58:12.519Z,2.97
2017-10-13T18:00:40.051Z,3.50
2017-10-13T18:03:07.739Z,2.80
2017-10-13T18:05:35.283Z,2.70
2017-10-13T18:08:02.787Z,2.60
2017-10-13T18:10:30.290Z,3.33
2017-10-13T18:12:57.800Z,2.60
2017-10-13T18:15:25.304Z,2.90
2017-10-13T18:17:53.070Z,2.80
2017-10-13T18:20:20.567Z,2.73
2017-10-13T18:22:48.090Z,2.47
2017-10-13T18:25:15.578Z,2.70
2017-10-13T18:27:43.095Z,2.87
2017-10-13T18:30:10.663Z,3.00
2017-10-13T18:32:38.213Z,2.53
2017-10-13T18:35:05.719Z,2.60
2017-10-13T18:37:33.214Z,3.00
2017-10-13T18:40:00.736Z,3.67
2017-10-13T18:42:28.258Z,3.43
2017-10-13T18:44:55.804Z,3.57
2017-10-13T18:47:23.331Z,3.90
2017-10-13T18:49:50.862Z,3.53
2017-10-13T18:52:19.271Z,3.80
2017-10-13T18:54:46.895Z,3.13
2017-10-13T18:57:14.427Z,3.57
2017-10-13T18:59:41.935Z,3.57
2017-10-13T19:02:09.507Z,3.10
2017-10-13T19:04:37.022Z,3.67
2017-10-13T19:07:05.423Z,2.90
2017-10-13T19:09:32.948Z,3.40
2017-10-13T19:12:01.221Z,3.47
2017-10-13T19:14:29.486Z,4.33
2017-10-13T19:16:57.083Z,3.17
2017-10-13T19:19:24.578Z,3.23
2017-10-13T19:21:52.081Z,3.40
2017-10-13T19:24:19.591Z,3.53
2017-10-13T19:26:47.092Z,2.67
2017-10-13T19:29:14.750Z,2.80
2017-10-13T19:31:42.244Z,3.20
2017-10-13T19:34:09.750Z,2.93
2017-10-13T19:36:38.019Z,3.40
2017-10-13T19:39:06.419Z,3.20
2017-10-13T19:41:34.089Z,3.10
2017-10-13T19:44:01.737Z,3.10
2017-10-13T19:46:29.235Z,3.23
2017-10-13T19:48:56.749Z,3.17
2017-10-13T19:51:24.256Z,3.80
2017-10-13T19:53:53.312Z,3.20
2017-10-13T19:56:20.935Z,3.20
2017-10-13T19:58:48.499Z,3.17
2017-10-13T20:01:16.051Z,3.03
2017-10-13T20:03:43.645Z,3.43
2017-10-13T20:06:11.146Z,4.07
2017-10-13T20:08:39.416Z,4.30
2017-10-13T20:11:07.713Z,4.30
2017-10-13T20:13:35.227Z,4.10
2017-10-13T20:16:02.742Z,3.80
2017-10-13T20:18:30.243Z,3.37
2017-10-13T20:20:57.759Z,4.20
2017-10-13T20:23:25.364Z,3.40
2017-10-13T20:25:52.875Z,3.87
2017-10-13T20:28:20.367Z,3.50
2017-10-13T20:30:49.426Z,3.90
2017-10-13T20:33:16.931Z,2.97
2017-10-13T20:35:44.427Z,3.13
2017-10-13T20:38:11.923Z,3.20
2017-10-13T20:40:39.503Z,3.20
2017-10-13T20:43:06.996Z,4.37
2017-10-13T20:45:34.527Z,3.40
2017-10-13T20:48:02.287Z,3.50
2017-10-13T20:50:29.831Z,3.67
2017-10-13T20:52:58.271Z,3.20
2017-10-13T20:55:25.787Z,3.40
2017-10-13T20:57:53.281Z,3.47
2017-10-13T21:00:20.775Z,3.57
2017-10-13T21:02:48.283Z,3.30
2017-10-13T21:05:15.778Z,3.67
2017-10-13T21:07:43.274Z,3.90
2017-10-13T21:10:10.803Z,2.70
2017-10-13T21:12:38.323Z,2.77
2017-10-13T21:15:05.837Z,3.00
2017-10-13T21:17:33.366Z,3.10
2017-10-13T21:20:01.034Z,3.30
2017-10-13T21:22:28.531Z,2.83
2017-10-13T21:24:56.024Z,3.70
2017-10-13T21:27:24.294Z,2.90
2017-10-13T21:29:52.563Z,3.33
2017-10-13T21:32:20.852Z,3.20
2017-10-13T21:34:49.122Z,3.20
2017-10-13T21:37:17.495Z,2.47
2017-10-13T21:39:45.032Z,3.10
2017-10-13T21:42:12.660Z,2.80
2017-10-13T21:44:40.152Z,2.63
2017-10-13T21:47:08.416Z,3.17
2017-10-13T21:49:35.917Z,2.50
2017-10-13T21:52:03.752Z,2.73
2017-10-13T21:54:32.023Z,2.50
2017-10-13T21:57:00.299Z,2.57
2017-10-13T21:59:28.706Z,3.03
2017-10-13T22:01:56.204Z,2.50
2017-10-13T22:04:23.698Z,3.03
2017-10-13T22:06:51.259Z,2.70
2017-10-13T22:09:18.756Z,3.03
2017-10-13T22:11:46.378Z,2.70
2017-10-13T22:14:14.030Z,3.00
2017-10-13T22:16:41.696Z,2.93
2017-10-13T22:19:09.349Z,2.10
2017-10-13T22:21:36.852Z,2.87
2017-10-13T22:24:04.369Z,2.50
2017-10-13T22:26:31.929Z,3.00
2017-10-13T22:28:59.469Z,2.90
2017-10-13T22:31:26.988Z,2.83
2017-10-13T22:33:55.327Z,2.80
2017-10-13T22:36:23.089Z,2.30
2017-10-13T22:38:50.614Z,2.87
2017-10-13T22:41:18.115Z,2.43
2017-10-13T22:43:45.627Z,2.30
2017-10-13T22:46:13.127Z,2.70
2017-10-13T22:48:40.649Z,2.57
2017-10-13T22:51:08.203Z,2.73
2017-10-13T22:53:35.703Z,2.50
2017-10-13T22:56:03.319Z,2.33
2017-10-13T22:58:31.064Z,2.50
2017-10-13T23:00:58.574Z,2.50
2017-10-13T23:03:26.080Z,2.60
2017-10-13T23:05:53.854Z,2.30
2017-10-13T23:08:21.367Z,2.30
2017-10-13T23:10:49.641Z,2.57
2017-10-13T23:13:17.955Z,2.67
2017-10-13T23:15:45.455Z,2.20
2017-10-13T23:18:13.169Z,2.47
2017-10-13T23:20:40.827Z,2.50
2017-10-13T23:23:08.328Z,2.47
2017-10-13T23:25:35.829Z,2.43
2017-10-13T23:28:03.411Z,2.13
2017-10-13T23:30:30.932Z,2.10
2017-10-13T23:32:58.519Z,2.20
2017-10-13T23:35:26.157Z,2.37
2017-10-13T23:37:53.672Z,2.43
2017-10-13T23:40:21.179Z,1.90
2017-10-13T23:42:48.946Z,2.80
2017-10-13T23:45:16.579Z,2.20
2017-10-13T23:47:44.091Z,2.30
2017-10-13T23:50:11.696Z,2.30
2017-10-13T23:52:39.371Z,2.33
2017-10-13T23:55:06.876Z,2.43
2017-10-13T23:57:35.147Z,2.20
